sensor_id;sensor_type;location;lat;lon;timestamp;P1;durP1;ratioP1;P2;durP2;ratioP2
2299;SDS011;1158;48.750;9.078;2024-01-15T00:00:16;23.50;;;9.40;;
2299;SDS011;1158;48.750;9.078;2024-01-15T00:02:44;28.20;;;9.47;;
2299;SDS011;1158;48.750;9.078;2024-01-15T00:05:10;20.43;;;8.47;;
2299;SDS011;1158;48.750;9.078;2024-01-15T00:07:37;22.30;;;9.13;;
2299;SDS011;1158;48.750;9.078;2024-01-15T00:10:04;23.37;;;9.70;;
2299;SDS011;1158;48.750;9.078;2024-01-15T00:12:31;23.93;;;10.17;;
2299;SDS011;1158;48.750;9.078;2024-01-15T00:14:58;27.37;;;10.53;;
2299;SDS011;1158;48.750;9.078;2024-01-15T00:17:26;25.43;;;9.23;;
2299;SDS011;1158;48.750;9.078;2024-01-15T00:19:53;26.10;;;9.27;;
2299;SDS011;1158;48.750;9.078;2024-01-15T00:22:19;26.70;;;9.40;;
2299;SDS011;1158;48.750;9.078;2024-01-15T00:24:46;22.30;;;9.20;;
2299;SDS011;1158;48.750;9.078;2024-01-15T00:27:13;22.70;;;8.57;;
2299;SDS011;1158;48.750;9.078;2024-01-15T00:29:39;21.70;;;8.97;;
2299;SDS011;1158;48.750;9.078;2024-01-15T00:32:06;22.67;;;9.10;;
2299;SDS011;1158;48.750;9.078;2024-01-15T00:34:34;26.13;;;9.13;;
2299;SDS011;1158;48.750;9.078;2024-01-15T00:37:01;28.07;;;10.00;;
2299;SDS011;1158;48.750;9.078;2024-01-15T00:39:27;21.57;;;9.03;;
2299;SDS011;1158;48.750;9.078;2024-01-15T00:41:54;23.93;;;9.80;;
2299;SDS011;1158;48.750;9.078;2024-01-15T00:44:21;24.70;;;8.50;;
2299;SDS011;1158;48.750;9.078;2024-01-15T00:46:48;22.30;;;9.30;;
2299;SDS011;1158;48.750;9.078;2024-01-15T00:49:15;21.37;;;9.80;;
2299;SDS011;1158;48.750;9.078;2024-01-15T00:51:43;23.43;;;9.23;;
2299;SDS011;1158;48.750;9.078;2024-01-15T00:54:10;18.57;;;7.50;;
2299;SDS011;1158;48.750;9.078;2024-01-15T00:56:36;23.20;;;8.70;;
2299;SDS011;1158;48.750;9.078;2024-01-15T00:59:03;23.60;;;8.60;;
2299;SDS011;1158;48.750;9.078;2024-01-15T01:01:30;20.80;;;8.77;;
2299;SDS011;1158;48.750;9.078;2024-01-15T01:03:56;22.47;;;8.37;;
2299;SDS011;1158;48.750;9.078;2024-01-15T01:06:23;26.60;;;9.20;;
2299;SDS011;1158;48.750;9.078;2024-01-15T01:08:52;18.90;;;7.63;;
2299;SDS011;1158;48.750;9.078;2024-01-15T01:11:18;17.33;;;7.70;;
2299;SDS011;1158;48.750;9.078;2024-01-15T01:13:45;24.43;;;8.80;;
2299;SDS011;1158;48.750;9.078;2024-01-15T01:16:12;23.73;;;8.93;;
2299;SDS011;1158;48.750;9.078;2024-01-15T01:18:38;22.13;;;8.60;;
2299;SDS011;1158;48.750;9.078;2024-01-15T01:21:05;21.50;;;7.33;;
2299;SDS011;1158;48.750;9.078;2024-01-15T01:23:32;25.80;;;9.30;;
2299;SDS011;1158;48.750;9.078;2024-01-15T01:26:00;29.57;;;8.50;;
2299;SDS011;1158;48.750;9.078;2024-01-15T01:28:27;21.97;;;8.47;;
2299;SDS011;1158;48.750;9.078;2024-01-15T01:30:54;22.47;;;8.43;;
2299;SDS011;1158;48.750;9.078;2024-01-15T01:33:20;21.53;;;8.07;;
2299;SDS011;1158;48.750;9.078;2024-01-15T01:35:47;23.57;;;7.67;;
2299;SDS011;1158;48.750;9.078;2024-01-15T01:38:14;20.53;;;9.27;;
2299;SDS011;1158;48.750;9.078;2024-01-15T01:40:40;26.40;;;9.23;;
2299;SDS011;1158;48.750;9.078;2024-01-15T01:43:09;16.97;;;6.70;;
2299;SDS011;1158;48.750;9.078;2024-01-15T01:45:36;22.30;;;8.10;;
2299;SDS011;1158;48.750;9.078;2024-01-15T01:48:04;23.43;;;8.20;;
2299;SDS011;1158;48.750;9.078;2024-01-15T01:50:31;23.50;;;9.20;;
2299;SDS011;1158;48.750;9.078;2024-01-15T01:52:58;22.07;;;8.67;;
2299;SDS011;1158;48.750;9.078;2024-01-15T01:55:26;18.53;;;8.20;;
2299;SDS011;1158;48.750;9.078;2024-01-15T01:57:55;17.80;;;8.33;;
2299;SDS011;1158;48.750;9.078;2024-01-15T02:00:23;21.53;;;8.50;;
2299;SDS011;1158;48.750;9.078;2024-01-15T02:02:51;21.77;;;8.27;;
2299;SDS011;1158;48.750;9.078;2024-01-15T02:05:18;22.77;;;9.93;;
2299;SDS011;1158;48.750;9.078;2024-01-15T02:07:45;22.73;;;8.37;;
2299;SDS011;1158;48.750;9.078;2024-01-15T02:10:12;18.00;;;7.70;;
2299;SDS011;1158;48.750;9.078;2024-01-15T02:12:39;19.47;;;7.87;;
2299;SDS011;1158;48.750;9.078;2024-01-15T02:15:06;18.47;;;8.27;;
2299;SDS011;1158;48.750;9.078;2024-01-15T02:17:34;26.20;;;7.80;;
2299;SDS011;1158;48.750;9.078;2024-01-15T02:20:01;28.10;;;9.10;;
2299;SDS011;1158;48.750;9.078;2024-01-15T02:22:27;23.83;;;9.00;;
2299;SDS011;1158;48.750;9.078;2024-01-15T02:24:55;21.90;;;7.87;;
2299;SDS011;1158;48.750;9.078;2024-01-15T02:27:22;22.80;;;8.60;;
2299;SDS011;1158;48.750;9.078;2024-01-15T02:29:49;16.53;;;7.37;;
2299;SDS011;1158;48.750;9.078;2024-01-15T02:32:16;21.53;;;8.07;;
2299;SDS011;1158;48.750;9.078;2024-01-15T02:34:43;22.87;;;8.87;;
2299;SDS011;1158;48.750;9.078;2024-01-15T02:37:10;25.23;;;7.80;;
2299;SDS011;1158;48.750;9.078;2024-01-15T02:39:36;22.13;;;9.30;;
2299;SDS011;1158;48.750;9.078;2024-01-15T02:42:05;20.33;;;9.40;;
2299;SDS011;1158;48.750;9.078;2024-01-15T02:44:32;19.57;;;7.97;;
2299;SDS011;1158;48.750;9.078;2024-01-15T02:46:58;22.30;;;9.23;;
2299;SDS011;1158;48.750;9.078;2024-01-15T02:49:25;24.77;;;9.10;;
2299;SDS011;1158;48.750;9.078;2024-01-15T02:51:52;22.27;;;8.70;;
2299;SDS011;1158;48.750;9.078;2024-01-15T02:54:18;24.33;;;8.43;;
2299;SDS011;1158;48.750;9.078;2024-01-15T02:56:45;21.43;;;8.13;;
2299;SDS011;1158;48.750;9.078;2024-01-15T02:59:13;19.23;;;7.87;;
2299;SDS011;1158;48.750;9.078;2024-01-15T03:01:40;28.73;;;8.47;;
2299;SDS011;1158;48.750;9.078;2024-01-15T03:04:06;18.27;;;7.47;;
2299;SDS011;1158;48.750;9.078;2024-01-15T03:06:33;24.93;;;9.40;;
2299;SDS011;1158;48.750;9.078;2024-01-15T03:09:00;20.87;;;8.00;;
2299;SDS011;1158;48.750;9.078;2024-01-15T03:11:28;23.87;;;7.40;;
2299;SDS011;1158;48.750;9.078;2024-01-15T03:13:55;17.00;;;7.23;;
2299;SDS011;1158;48.750;9.078;2024-01-15T03:16:23;20.50;;;8.87;;
2299;SDS011;1158;48.750;9.078;2024-01-15T03:18:50;21.27;;;8.73;;
2299;SDS011;1158;48.750;9.078;2024-01-15T03:21:16;19.37;;;8.27;;
2299;SDS011;1158;48.750;9.078;2024-01-15T03:23:43;21.37;;;7.30;;
2299;SDS011;1158;48.750;9.078;2024-01-15T03:26:10;23.60;;;8.20;;
2299;SDS011;1158;48.750;9.078;2024-01-15T03:28:36;20.70;;;7.30;;
2299;SDS011;1158;48.750;9.078;2024-01-15T03:31:03;16.60;;;8.27;;
2299;SDS011;1158;48.750;9.078;2024-01-15T03:33:31;19.07;;;7.97;;
2299;SDS011;1158;48.750;9.078;2024-01-15T03:35:58;20.23;;;8.47;;
2299;SDS011;1158;48.750;9.078;2024-01-15T03:38:27;19.00;;;7.60;;
2299;SDS011;1158;48.750;9.078;2024-01-15T03:40:54;25.60;;;9.00;;
2299;SDS011;1158;48.750;9.078;2024-01-15T03:43:21;27.07;;;9.93;;
2299;SDS011;1158;48.750;9.078;2024-01-15T03:45:47;19.67;;;8.20;;
2299;SDS011;1158;48.750;9.078;2024-01-15T03:48:14;20.87;;;8.50;;
2299;SDS011;1158;48.750;9.078;2024-01-15T03:50:42;18.73;;;7.90;;
2299;SDS011;1158;48.750;9.078;2024-01-15T03:53:09;17.83;;;8.03;;
2299;SDS011;1158;48.750;9.078;2024-01-15T03:55:35;20.40;;;8.23;;
2299;SDS011;1158;48.750;9.078;2024-01-15T03:58:02;19.17;;;8.57;;
2299;SDS011;1158;48.750;9.078;2024-01-15T04:00:29;16.87;;;7.37;;
2299;SDS011;1158;48.750;9.078;2024-01-15T04:02:55;16.23;;;7.43;;
2299;SDS011;1158;48.750;9.078;2024-01-15T04:05:22;22.30;;;7.77;;
2299;SDS011;1158;48.750;9.078;2024-01-15T04:07:50;21.40;;;9.07;;
2299;SDS011;1158;48.750;9.078;2024-01-15T04:10:18;18.67;;;7.33;;
2299;SDS011;1158;48.750;9.078;2024-01-15T04:12:45;21.23;;;7.70;;
2299;SDS011;1158;48.750;9.078;2024-01-15T04:15:12;11.17;;;6.07;;
2299;SDS011;1158;48.750;9.078;2024-01-15T04:17:39;19.43;;;7.00;;
2299;SDS011;1158;48.750;9.078;2024-01-15T04:20:06;15.33;;;7.00;;
2299;SDS011;1158;48.750;9.078;2024-01-15T04:22:33;22.03;;;7.73;;
2299;SDS011;1158;48.750;9.078;2024-01-15T04:25:02;19.90;;;7.40;;
2299;SDS011;1158;48.750;9.078;2024-01-15T04:27:30;21.97;;;7.80;;
2299;SDS011;1158;48.750;9.078;2024-01-15T04:29:57;19.40;;;8.07;;
2299;SDS011;1158;48.750;9.078;2024-01-15T04:32:23;23.60;;;8.97;;
2299;SDS011;1158;48.750;9.078;2024-01-15T04:34:50;19.43;;;7.77;;
2299;SDS011;1158;48.750;9.078;2024-01-15T04:37:17;17.93;;;7.30;;
2299;SDS011;1158;48.750;9.078;2024-01-15T04:39:44;18.07;;;7.43;;
2299;SDS011;1158;48.750;9.078;2024-01-15T04:42:12;19.77;;;7.20;;
2299;SDS011;1158;48.750;9.078;2024-01-15T04:44:39;15.20;;;7.47;;
2299;SDS011;1158;48.750;9.078;2024-01-15T04:47:11;12.37;;;7.03;;
2299;SDS011;1158;48.750;9.078;2024-01-15T04:49:38;17.63;;;6.80;;
2299;SDS011;1158;48.750;9.078;2024-01-15T04:52:05;22.83;;;9.27;;
2299;SDS011;1158;48.750;9.078;2024-01-15T04:54:31;22.47;;;8.53;;
2299;SDS011;1158;48.750;9.078;2024-01-15T04:56:58;21.33;;;7.07;;
2299;SDS011;1158;48.750;9.078;2024-01-15T04:59:26;17.50;;;6.70;;
2299;SDS011;1158;48.750;9.078;2024-01-15T05:01:53;17.47;;;7.57;;
2299;SDS011;1158;48.750;9.078;2024-01-15T05:04:21;24.63;;;8.17;;
2299;SDS011;1158;48.750;9.078;2024-01-15T05:06:47;23.20;;;9.80;;
2299;SDS011;1158;48.750;9.078;2024-01-15T05:09:14;16.40;;;7.73;;
2299;SDS011;1158;48.750;9.078;2024-01-15T05:11:41;21.13;;;8.40;;
2299;SDS011;1158;48.750;9.078;2024-01-15T05:14:07;18.73;;;8.83;;
2299;SDS011;1158;48.750;9.078;2024-01-15T05:16:35;18.93;;;8.30;;
2299;SDS011;1158;48.750;9.078;2024-01-15T05:19:04;20.17;;;7.90;;
2299;SDS011;1158;48.750;9.078;2024-01-15T05:21:31;18.90;;;9.30;;
2299;SDS011;1158;48.750;9.078;2024-01-15T05:23:57;19.77;;;8.60;;
2299;SDS011;1158;48.750;9.078;2024-01-15T05:26:24;16.57;;;7.50;;
2299;SDS011;1158;48.750;9.078;2024-01-15T05:28:51;17.90;;;7.63;;
2299;SDS011;1158;48.750;9.078;2024-01-15T05:31:17;22.57;;;8.53;;
2299;SDS011;1158;48.750;9.078;2024-01-15T05:33:46;22.70;;;8.30;;
2299;SDS011;1158;48.750;9.078;2024-01-15T05:36:12;17.07;;;7.93;;
2299;SDS011;1158;48.750;9.078;2024-01-15T05:38:39;17.80;;;6.47;;
2299;SDS011;1158;48.750;9.078;2024-01-15T05:41:06;18.43;;;7.23;;
2299;SDS011;1158;48.750;9.078;2024-01-15T05:43:32;18.73;;;7.07;;
2299;SDS011;1158;48.750;9.078;2024-01-15T05:45:59;22.27;;;8.57;;
2299;SDS011;1158;48.750;9.078;2024-01-15T05:48:26;19.10;;;8.50;;
2299;SDS011;1158;48.750;9.078;2024-01-15T05:50:54;18.47;;;8.10;;
2299;SDS011;1158;48.750;9.078;2024-01-15T05:53:21;21.57;;;8.07;;
2299;SDS011;1158;48.750;9.078;2024-01-15T05:55:47;18.40;;;8.13;;
2299;SDS011;1158;48.750;9.078;2024-01-15T05:58:14;23.70;;;8.43;;
2299;SDS011;1158;48.750;9.078;2024-01-15T06:00:41;20.10;;;7.97;;
2299;SDS011;1158;48.750;9.078;2024-01-15T06:03:07;18.80;;;8.57;;
2299;SDS011;1158;48.750;9.078;2024-01-15T06:05:34;23.40;;;9.00;;
2299;SDS011;1158;48.750;9.078;2024-01-15T06:08:02;24.60;;;8.30;;
2299;SDS011;1158;48.750;9.078;2024-01-15T06:10:29;16.70;;;8.07;;
2299;SDS011;1158;48.750;9.078;2024-01-15T06:12:56;16.87;;;7.40;;
2299;SDS011;1158;48.750;9.078;2024-01-15T06:15:22;22.77;;;7.70;;
2299;SDS011;1158;48.750;9.078;2024-01-15T06:17:49;24.93;;;8.67;;
2299;SDS011;1158;48.750;9.078;2024-01-15T06:20:16;16.43;;;7.33;;
2299;SDS011;1158;48.750;9.078;2024-01-15T06:22:43;18.57;;;8.20;;
2299;SDS011;1158;48.750;9.078;2024-01-15T06:25:11;15.80;;;8.27;;
2299;SDS011;1158;48.750;9.078;2024-01-15T06:27:37;20.80;;;8.53;;
2299;SDS011;1158;48.750;9.078;2024-01-15T06:30:05;21.20;;;8.50;;
2299;SDS011;1158;48.750;9.078;2024-01-15T06:32:32;20.00;;;7.63;;
2299;SDS011;1158;48.750;9.078;2024-01-15T06:34:59;18.57;;;7.93;;
2299;SDS011;1158;48.750;9.078;2024-01-15T06:37:25;22.00;;;7.27;;
2299;SDS011;1158;48.750;9.078;2024-01-15T06:39:52;16.73;;;7.10;;
2299;SDS011;1158;48.750;9.078;2024-01-15T06:42:20;19.23;;;7.30;;
2299;SDS011;1158;48.750;9.078;2024-01-15T06:44:47;18.73;;;7.80;;
2299;SDS011;1158;48.750;9.078;2024-01-15T06:47:14;19.17;;;7.20;;
2299;SDS011;1158;48.750;9.078;2024-01-15T06:49:42;20.30;;;7.90;;
2299;SDS011;1158;48.750;9.078;2024-01-15T06:52:09;17.97;;;8.70;;
2299;SDS011;1158;48.750;9.078;2024-01-15T06:54:36;15.80;;;7.70;;
2299;SDS011;1158;48.750;9.078;2024-01-15T06:57:03;15.63;;;8.70;;
2299;SDS011;1158;48.750;9.078;2024-01-15T06:59:33;13.90;;;7.50;;
2299;SDS011;1158;48.750;9.078;2024-01-15T07:02:00;15.17;;;7.37;;
2299;SDS011;1158;48.750;9.078;2024-01-15T07:04:27;14.33;;;6.73;;
2299;SDS011;1158;48.750;9.078;2024-01-15T07:06:54;14.87;;;6.50;;
2299;SDS011;1158;48.750;9.078;2024-01-15T07:09:21;16.57;;;7.80;;
2299;SDS011;1158;48.750;9.078;2024-01-15T07:11:48;17.63;;;7.07;;
2299;SDS011;1158;48.750;9.078;2024-01-15T07:14:14;17.00;;;8.03;;
2299;SDS011;1158;48.750;9.078;2024-01-15T07:16:42;14.70;;;7.47;;
2299;SDS011;1158;48.750;9.078;2024-01-15T07:19:09;14.17;;;7.60;;
2299;SDS011;1158;48.750;9.078;2024-01-15T07:21:36;18.93;;;7.40;;
2299;SDS011;1158;48.750;9.078;2024-01-15T07:24:04;20.00;;;7.90;;
2299;SDS011;1158;48.750;9.078;2024-01-15T07:26:31;17.27;;;7.37;;
2299;SDS011;1158;48.750;9.078;2024-01-15T07:28:58;16.30;;;7.20;;
2299;SDS011;1158;48.750;9.078;2024-01-15T07:31:24;14.33;;;6.73;;
2299;SDS011;1158;48.750;9.078;2024-01-15T07:33:52;19.03;;;7.83;;
2299;SDS011;1158;48.750;9.078;2024-01-15T07:36:19;17.10;;;6.80;;
2299;SDS011;1158;48.750;9.078;2024-01-15T07:38:46;19.00;;;7.90;;
2299;SDS011;1158;48.750;9.078;2024-01-15T07:41:13;20.77;;;7.90;;
2299;SDS011;1158;48.750;9.078;2024-01-15T07:43:40;20.87;;;8.00;;
2299;SDS011;1158;48.750;9.078;2024-01-15T07:46:07;16.23;;;7.53;;
2299;SDS011;1158;48.750;9.078;2024-01-15T07:48:33;15.73;;;6.70;;
2299;SDS011;1158;48.750;9.078;2024-01-15T07:51:01;18.57;;;8.00;;
2299;SDS011;1158;48.750;9.078;2024-01-15T07:53:29;21.50;;;9.50;;
2299;SDS011;1158;48.750;9.078;2024-01-15T07:55:55;14.43;;;6.97;;
2299;SDS011;1158;48.750;9.078;2024-01-15T07:58:22;20.83;;;7.20;;
2299;SDS011;1158;48.750;9.078;2024-01-15T08:00:49;14.90;;;7.13;;
2299;SDS011;1158;48.750;9.078;2024-01-15T08:03:16;15.53;;;7.50;;
2299;SDS011;1158;48.750;9.078;2024-01-15T08:05:43;15.17;;;7.60;;
2299;SDS011;1158;48.750;9.078;2024-01-15T08:08:12;17.57;;;7.50;;
2299;SDS011;1158;48.750;9.078;2024-01-15T08:10:38;20.90;;;8.77;;
2299;SDS011;1158;48.750;9.078;2024-01-15T08:13:05;19.23;;;8.80;;
2299;SDS011;1158;48.750;9.078;2024-01-15T08:15:34;23.63;;;9.30;;
2299;SDS011;1158;48.750;9.078;2024-01-15T08:18:01;19.53;;;7.00;;
2299;SDS011;1158;48.750;9.078;2024-01-15T08:20:29;18.23;;;7.40;;
2299;SDS011;1158;48.750;9.078;2024-01-15T08:22:55;19.20;;;7.23;;
2299;SDS011;1158;48.750;9.078;2024-01-15T08:25:23;14.17;;;6.53;;
2299;SDS011;1158;48.750;9.078;2024-01-15T08:27:51;13.80;;;6.20;;
2299;SDS011;1158;48.750;9.078;2024-01-15T08:30:17;12.37;;;5.60;;
2299;SDS011;1158;48.750;9.078;2024-01-15T08:32:45;16.57;;;6.20;;
2299;SDS011;1158;48.750;9.078;2024-01-15T08:35:12;14.73;;;7.17;;
2299;SDS011;1158;48.750;9.078;2024-01-15T08:37:39;12.43;;;6.57;;
2299;SDS011;1158;48.750;9.078;2024-01-15T08:40:06;15.73;;;6.00;;
2299;SDS011;1158;48.750;9.078;2024-01-15T08:42:34;11.20;;;6.43;;
2299;SDS011;1158;48.750;9.078;2024-01-15T08:45:01;18.83;;;6.53;;
2299;SDS011;1158;48.750;9.078;2024-01-15T08:47:28;11.70;;;5.30;;
2299;SDS011;1158;48.750;9.078;2024-01-15T08:49:57;11.37;;;5.00;;
2299;SDS011;1158;48.750;9.078;2024-01-15T08:52:25;13.57;;;6.03;;
2299;SDS011;1158;48.750;9.078;2024-01-15T08:54:52;12.60;;;5.63;;
2299;SDS011;1158;48.750;9.078;2024-01-15T08:57:18;13.00;;;5.60;;
2299;SDS011;1158;48.750;9.078;2024-01-15T08:59:48;9.23;;;4.40;;
2299;SDS011;1158;48.750;9.078;2024-01-15T09:02:16;12.53;;;5.17;;
2299;SDS011;1158;48.750;9.078;2024-01-15T09:04:42;10.93;;;4.70;;
2299;SDS011;1158;48.750;9.078;2024-01-15T09:07:09;15.90;;;5.20;;
2299;SDS011;1158;48.750;9.078;2024-01-15T09:09:36;8.57;;;3.87;;
2299;SDS011;1158;48.750;9.078;2024-01-15T09:12:03;10.60;;;4.77;;
2299;SDS011;1158;48.750;9.078;2024-01-15T09:14:30;10.03;;;4.90;;
2299;SDS011;1158;48.750;9.078;2024-01-15T09:17:00;8.70;;;3.83;;
2299;SDS011;1158;48.750;9.078;2024-01-15T09:19:28;10.40;;;5.40;;
2299;SDS011;1158;48.750;9.078;2024-01-15T09:21:55;9.40;;;5.07;;
2299;SDS011;1158;48.750;9.078;2024-01-15T09:24:21;15.40;;;5.30;;
2299;SDS011;1158;48.750;9.078;2024-01-15T09:26:48;9.00;;;4.33;;
2299;SDS011;1158;48.750;9.078;2024-01-15T09:29:15;11.50;;;4.13;;
2299;SDS011;1158;48.750;9.078;2024-01-15T09:31:43;9.93;;;4.60;;
2299;SDS011;1158;48.750;9.078;2024-01-15T09:34:11;7.23;;;4.10;;
2299;SDS011;1158;48.750;9.078;2024-01-15T09:36:39;12.17;;;4.40;;
2299;SDS011;1158;48.750;9.078;2024-01-15T09:39:06;8.87;;;4.10;;
2299;SDS011;1158;48.750;9.078;2024-01-15T09:41:34;10.90;;;4.40;;
2299;SDS011;1158;48.750;9.078;2024-01-15T09:44:01;7.97;;;3.97;;
2299;SDS011;1158;48.750;9.078;2024-01-15T09:46:29;10.43;;;4.67;;
2299;SDS011;1158;48.750;9.078;2024-01-15T09:48:56;10.43;;;4.67;;
2299;SDS011;1158;48.750;9.078;2024-01-15T09:51:25;14.60;;;5.10;;
2299;SDS011;1158;48.750;9.078;2024-01-15T09:53:51;11.37;;;4.40;;
2299;SDS011;1158;48.750;9.078;2024-01-15T09:56:19;10.77;;;4.73;;
2299;SDS011;1158;48.750;9.078;2024-01-15T09:58:46;10.13;;;4.53;;
2299;SDS011;1158;48.750;9.078;2024-01-15T10:01:13;10.70;;;4.10;;
2299;SDS011;1158;48.750;9.078;2024-01-15T10:03:42;8.73;;;4.20;;
2299;SDS011;1158;48.750;9.078;2024-01-15T10:06:09;12.50;;;5.27;;
2299;SDS011;1158;48.750;9.078;2024-01-15T10:08:40;12.50;;;5.10;;
2299;SDS011;1158;48.750;9.078;2024-01-15T10:11:06;9.07;;;4.10;;
2299;SDS011;1158;48.750;9.078;2024-01-15T10:13:33;7.90;;;4.40;;
2299;SDS011;1158;48.750;9.078;2024-01-15T10:16:00;9.43;;;4.50;;
2299;SDS011;1158;48.750;9.078;2024-01-15T10:18:28;9.70;;;4.23;;
2299;SDS011;1158;48.750;9.078;2024-01-15T10:20:55;9.53;;;4.10;;
2299;SDS011;1158;48.750;9.078;2024-01-15T10:23:22;7.17;;;3.77;;
2299;SDS011;1158;48.750;9.078;2024-01-15T10:25:51;6.43;;;2.93;;
2299;SDS011;1158;48.750;9.078;2024-01-15T10:28:18;6.90;;;4.10;;
2299;SDS011;1158;48.750;9.078;2024-01-15T10:30:45;10.90;;;4.30;;
2299;SDS011;1158;48.750;9.078;2024-01-15T10:33:12;10.43;;;3.57;;
2299;SDS011;1158;48.750;9.078;2024-01-15T10:35:40;8.00;;;3.87;;
2299;SDS011;1158;48.750;9.078;2024-01-15T10:38:07;9.70;;;3.80;;
2299;SDS011;1158;48.750;9.078;2024-01-15T10:40:34;9.77;;;4.20;;
2299;SDS011;1158;48.750;9.078;2024-01-15T10:43:02;10.57;;;4.23;;
2299;SDS011;1158;48.750;9.078;2024-01-15T10:45:29;7.00;;;3.60;;
2299;SDS011;1158;48.750;9.078;2024-01-15T10:47:56;8.50;;;4.13;;
2299;SDS011;1158;48.750;9.078;2024-01-15T10:50:23;5.90;;;3.40;;
2299;SDS011;1158;48.750;9.078;2024-01-15T10:52:50;7.60;;;4.77;;
2299;SDS011;1158;48.750;9.078;2024-01-15T10:55:18;11.70;;;4.43;;
2299;SDS011;1158;48.750;9.078;2024-01-15T10:57:45;10.70;;;4.90;;
2299;SDS011;1158;48.750;9.078;2024-01-15T11:00:15;9.10;;;3.43;;
2299;SDS011;1158;48.750;9.078;2024-01-15T11:02:42;9.70;;;3.87;;
2299;SDS011;1158;48.750;9.078;2024-01-15T11:05:10;10.10;;;4.63;;
2299;SDS011;1158;48.750;9.078;2024-01-15T11:07:36;5.50;;;3.40;;
2299;SDS011;1158;48.750;9.078;2024-01-15T11:10:06;9.30;;;4.03;;
2299;SDS011;1158;48.750;9.078;2024-01-15T11:12:35;9.03;;;3.87;;
2299;SDS011;1158;48.750;9.078;2024-01-15T11:15:02;9.67;;;4.47;;
2299;SDS011;1158;48.750;9.078;2024-01-15T11:17:33;8.40;;;4.10;;
2299;SDS011;1158;48.750;9.078;2024-01-15T11:20:24;11.70;;;5.00;;
2299;SDS011;1158;48.750;9.078;2024-01-15T11:22:50;10.73;;;5.60;;
2299;SDS011;1158;48.750;9.078;2024-01-15T11:25:18;9.80;;;5.27;;
2299;SDS011;1158;48.750;9.078;2024-01-15T11:27:46;16.47;;;6.33;;
2299;SDS011;1158;48.750;9.078;2024-01-15T11:30:16;13.70;;;5.80;;
2299;SDS011;1158;48.750;9.078;2024-01-15T11:32:44;14.67;;;5.43;;
2299;SDS011;1158;48.750;9.078;2024-01-15T11:35:11;11.43;;;4.87;;
2299;SDS011;1158;48.750;9.078;2024-01-15T11:37:58;14.67;;;6.47;;
2299;SDS011;1158;48.750;9.078;2024-01-15T11:43:17;12.80;;;5.20;;
2299;SDS011;1158;48.750;9.078;2024-01-15T11:46:14;7.87;;;4.67;;
2299;SDS011;1158;48.750;9.078;2024-01-15T11:48:46;10.10;;;4.87;;
2299;SDS011;1158;48.750;9.078;2024-01-15T11:51:19;11.40;;;4.80;;
2299;SDS011;1158;48.750;9.078;2024-01-15T11:53:50;10.13;;;4.60;;
2299;SDS011;1158;48.750;9.078;2024-01-15T11:56:23;8.87;;;4.67;;
2299;SDS011;1158;48.750;9.078;2024-01-15T11:58:50;14.07;;;5.73;;
2299;SDS011;1158;48.750;9.078;2024-01-15T12:01:17;11.90;;;4.60;;
2299;SDS011;1158;48.750;9.078;2024-01-15T12:03:48;9.40;;;3.93;;
2299;SDS011;1158;48.750;9.078;2024-01-15T12:06:14;8.90;;;4.67;;
2299;SDS011;1158;48.750;9.078;2024-01-15T12:08:41;14.93;;;5.27;;
2299;SDS011;1158;48.750;9.078;2024-01-15T12:11:10;9.90;;;4.30;;
2299;SDS011;1158;48.750;9.078;2024-01-15T12:13:39;8.10;;;4.67;;
2299;SDS011;1158;48.750;9.078;2024-01-15T12:16:06;8.50;;;4.80;;
2299;SDS011;1158;48.750;9.078;2024-01-15T12:18:33;8.60;;;5.00;;
2299;SDS011;1158;48.750;9.078;2024-01-15T12:21:01;9.60;;;5.60;;
2299;SDS011;1158;48.750;9.078;2024-01-15T12:23:30;11.00;;;5.50;;
2299;SDS011;1158;48.750;9.078;2024-01-15T12:25:57;13.70;;;6.20;;
2299;SDS011;1158;48.750;9.078;2024-01-15T12:28:27;11.10;;;5.20;;
2299;SDS011;1158;48.750;9.078;2024-01-15T12:30:55;13.83;;;5.33;;
2299;SDS011;1158;48.750;9.078;2024-01-15T12:33:22;15.40;;;5.90;;
2299;SDS011;1158;48.750;9.078;2024-01-15T12:35:48;10.47;;;5.50;;
2299;SDS011;1158;48.750;9.078;2024-01-15T12:38:19;11.37;;;5.87;;
2299;SDS011;1158;48.750;9.078;2024-01-15T12:40:46;10.30;;;5.00;;
2299;SDS011;1158;48.750;9.078;2024-01-15T12:43:14;11.40;;;6.30;;
2299;SDS011;1158;48.750;9.078;2024-01-15T12:45:41;12.67;;;5.70;;
2299;SDS011;1158;48.750;9.078;2024-01-15T12:48:08;11.40;;;5.83;;
2299;SDS011;1158;48.750;9.078;2024-01-15T12:50:35;12.30;;;5.33;;
2299;SDS011;1158;48.750;9.078;2024-01-15T12:53:02;12.00;;;5.80;;
2299;SDS011;1158;48.750;9.078;2024-01-15T12:55:30;12.97;;;5.30;;
2299;SDS011;1158;48.750;9.078;2024-01-15T12:57:57;14.30;;;6.20;;
2299;SDS011;1158;48.750;9.078;2024-01-15T13:00:24;13.07;;;5.90;;
2299;SDS011;1158;48.750;9.078;2024-01-15T13:02:51;10.87;;;5.23;;
2299;SDS011;1158;48.750;9.078;2024-01-15T13:05:17;9.73;;;6.00;;
2299;SDS011;1158;48.750;9.078;2024-01-15T13:07:46;13.97;;;5.20;;
2299;SDS011;1158;48.750;9.078;2024-01-15T13:10:12;13.33;;;5.07;;
2299;SDS011;1158;48.750;9.078;2024-01-15T13:12:41;10.47;;;4.83;;
2299;SDS011;1158;48.750;9.078;2024-01-15T13:15:08;9.20;;;4.97;;
2299;SDS011;1158;48.750;9.078;2024-01-15T13:17:36;8.33;;;4.60;;
2299;SDS011;1158;48.750;9.078;2024-01-15T13:20:04;7.80;;;4.37;;
2299;SDS011;1158;48.750;9.078;2024-01-15T13:22:31;9.33;;;5.00;;
2299;SDS011;1158;48.750;9.078;2024-01-15T13:24:58;7.33;;;4.23;;
2299;SDS011;1158;48.750;9.078;2024-01-15T13:27:25;9.27;;;5.07;;
2299;SDS011;1158;48.750;9.078;2024-01-15T13:29:53;10.70;;;4.83;;
2299;SDS011;1158;48.750;9.078;2024-01-15T13:32:22;9.83;;;4.63;;
2299;SDS011;1158;48.750;9.078;2024-01-15T13:34:51;12.63;;;3.80;;
2299;SDS011;1158;48.750;9.078;2024-01-15T13:37:18;12.50;;;4.60;;
2299;SDS011;1158;48.750;9.078;2024-01-15T13:39:45;9.20;;;3.60;;
2299;SDS011;1158;48.750;9.078;2024-01-15T13:42:12;8.80;;;4.60;;
2299;SDS011;1158;48.750;9.078;2024-01-15T13:44:39;7.40;;;3.57;;
2299;SDS011;1158;48.750;9.078;2024-01-15T13:47:07;10.47;;;4.10;;
2299;SDS011;1158;48.750;9.078;2024-01-15T13:49:35;8.07;;;4.30;;
2299;SDS011;1158;48.750;9.078;2024-01-15T13:52:02;11.10;;;4.30;;
2299;SDS011;1158;48.750;9.078;2024-01-15T13:54:29;6.80;;;4.10;;
2299;SDS011;1158;48.750;9.078;2024-01-15T13:56:56;12.03;;;4.30;;
2299;SDS011;1158;48.750;9.078;2024-01-15T13:59:24;9.60;;;4.90;;
2299;SDS011;1158;48.750;9.078;2024-01-15T14:01:50;10.27;;;4.20;;
2299;SDS011;1158;48.750;9.078;2024-01-15T14:04:19;9.90;;;4.67;;
2299;SDS011;1158;48.750;9.078;2024-01-15T14:06:45;7.57;;;4.00;;
2299;SDS011;1158;48.750;9.078;2024-01-15T14:09:12;8.57;;;3.73;;
2299;SDS011;1158;48.750;9.078;2024-01-15T14:11:39;9.80;;;3.90;;
2299;SDS011;1158;48.750;9.078;2024-01-15T14:14:06;7.47;;;3.60;;
2299;SDS011;1158;48.750;9.078;2024-01-15T14:16:34;8.67;;;3.47;;
2299;SDS011;1158;48.750;9.078;2024-01-15T14:19:01;5.80;;;3.03;;
2299;SDS011;1158;48.750;9.078;2024-01-15T14:21:29;7.77;;;3.83;;
2299;SDS011;1158;48.750;9.078;2024-01-15T14:23:56;7.73;;;4.07;;
2299;SDS011;1158;48.750;9.078;2024-01-15T14:26:23;6.27;;;3.17;;
2299;SDS011;1158;48.750;9.078;2024-01-15T14:28:50;9.10;;;3.50;;
2299;SDS011;1158;48.750;9.078;2024-01-15T14:31:17;5.63;;;3.50;;
2299;SDS011;1158;48.750;9.078;2024-01-15T14:33:45;6.03;;;3.00;;
2299;SDS011;1158;48.750;9.078;2024-01-15T14:36:12;6.70;;;3.43;;
2299;SDS011;1158;48.750;9.078;2024-01-15T14:38:40;5.80;;;3.50;;
2299;SDS011;1158;48.750;9.078;2024-01-15T14:41:07;6.43;;;3.40;;
2299;SDS011;1158;48.750;9.078;2024-01-15T14:43:33;8.40;;;4.67;;
2299;SDS011;1158;48.750;9.078;2024-01-15T14:46:00;10.93;;;4.27;;
2299;SDS011;1158;48.750;9.078;2024-01-15T14:48:27;7.00;;;3.83;;
2299;SDS011;1158;48.750;9.078;2024-01-15T14:50:54;5.77;;;3.93;;
2299;SDS011;1158;48.750;9.078;2024-01-15T14:53:21;10.73;;;5.03;;
2299;SDS011;1158;48.750;9.078;2024-01-15T14:55:49;6.90;;;4.77;;
2299;SDS011;1158;48.750;9.078;2024-01-15T14:58:16;10.47;;;5.27;;
2299;SDS011;1158;48.750;9.078;2024-01-15T15:00:42;8.77;;;5.00;;
2299;SDS011;1158;48.750;9.078;2024-01-15T15:03:11;7.67;;;4.73;;
2299;SDS011;1158;48.750;9.078;2024-01-15T15:05:39;7.97;;;4.60;;
2299;SDS011;1158;48.750;9.078;2024-01-15T15:08:05;10.23;;;4.87;;